LHPR/QGY METAR and TAF weather

Enter ICAO airport designator
Station Type Date Time Source
LHPR METAR 2019/12/13 16:45 UTC NOAA

LHPR 131645Z 21007KT 170V240 9999 -RA OVC028 05/02 Q0993


Station Type Date Time Source
LHPR Decoded METAR 2019/12/13 16:45 UTC NOAA

Station name not available
Dec 13, 2019 - 11:45 AM EST / 2019.12.13 1645 UTC
Wind: from the SSW (210 degrees) at 8 MPH (7 KT) (direction variable):0
Visibility: greater than 7 mile(s):0
Sky conditions: overcast
Weather: light rain
Temperature: 41 F (5 C)
Dew Point: 35 F (2 C)
Relative Humidity: 80%
Pressure (altimeter): 29.32 in. Hg (0993 hPa)
ob: LHPR 131645Z 21007KT 170V240 9999 -RA OVC028 05/02 Q0993
cycle: 17

Station Type Date Time Source
LHPR TAF UTC NOAA

Error!

Example: see airport list